createdAt,value
2018-05-01T00:02:37.821Z,8.4
2018-05-01T00:08:05.094Z,8.4
2018-05-01T00:13:31.903Z,8.4
2018-05-01T00:18:57.938Z,8.4
2018-05-01T00:24:23.965Z,8.3
2018-05-01T00:29:51.015Z,8.3
2018-05-01T00:35:17.327Z,8.3
2018-05-01T00:40:43.056Z,8.3
2018-05-01T00:46:10.089Z,8.3
2018-05-01T00:51:37.093Z,8.4
2018-05-01T00:57:03.086Z,8.5
2018-05-01T01:02:29.196Z,8.6
2018-05-01T01:07:56.341Z,8.7
2018-05-01T01:13:22.270Z,8.7
2018-05-01T01:18:49.418Z,8.8
2018-05-01T01:24:16.322Z,8.7
2018-05-01T01:29:43.321Z,8.7
2018-05-01T01:35:10.368Z,8.7
2018-05-01T01:40:36.309Z,8.7
2018-05-01T01:46:02.361Z,8.7
2018-05-01T01:51:29.368Z,8.7
2018-05-01T01:56:56.587Z,8.7
2018-05-01T02:02:22.412Z,8.6
2018-05-01T02:07:49.430Z,8.6
2018-05-01T02:13:16.451Z,8.5
2018-05-01T02:18:42.488Z,8.4
2018-05-01T02:24:08.770Z,8.4
2018-05-01T02:29:34.463Z,8.3
2018-05-01T02:35:01.476Z,8.3
2018-05-01T02:40:27.489Z,8.3
2018-05-01T02:45:53.486Z,8.2
2018-05-01T02:51:19.417Z,8.2
2018-05-01T02:56:46.426Z,8.2
2018-05-01T03:02:13.329Z,8.2
2018-05-01T03:07:40.309Z,8.2
2018-05-01T03:13:06.349Z,8.2
2018-05-01T03:18:32.374Z,8.2
2018-05-01T03:23:59.226Z,8.2
2018-05-01T03:29:25.202Z,8.1
2018-05-01T03:34:52.315Z,8.2
2018-05-01T03:40:18.184Z,8.1
2018-05-01T03:45:44.063Z,8.1
2018-05-01T03:51:09.995Z,8.1
2018-05-01T03:56:36.920Z,8.1
2018-05-01T04:02:02.907Z,8.1
2018-05-01T04:07:29.950Z,8.1
2018-05-01T04:12:56.829Z,8
2018-05-01T04:18:23.888Z,8
2018-05-01T04:23:51.183Z,7.9
2018-05-01T04:29:17.103Z,7.9
2018-05-01T04:34:43.843Z,7.9
2018-05-01T04:40:09.466Z,7.9
2018-05-01T04:45:36.361Z,7.9
2018-05-01T04:51:02.320Z,7.9
2018-05-01T04:56:29.494Z,7.9
2018-05-01T05:01:55.216Z,7.9
2018-05-01T05:07:21.074Z,7.8
2018-05-01T05:12:47.003Z,7.8
2018-05-01T05:18:13.917Z,7.7
2018-05-01T05:23:40.745Z,7.8
2018-05-01T05:29:07.847Z,7.8
2018-05-01T05:34:34.558Z,7.8
2018-05-01T05:40:01.502Z,7.9
2018-05-01T05:45:28.719Z,7.9
2018-05-01T05:50:54.320Z,7.8
2018-05-01T05:56:20.258Z,7.8
2018-05-01T06:01:47.077Z,7.8
2018-05-01T06:07:12.955Z,7.7
2018-05-01T06:12:38.833Z,7.7
2018-05-01T06:18:04.698Z,7.6
2018-05-01T06:23:31.621Z,7.6
2018-05-01T06:28:57.885Z,7.5
2018-05-01T06:34:23.307Z,7.5
2018-05-01T06:39:49.298Z,7.6
2018-05-01T06:45:15.166Z,7.5
2018-05-01T06:50:41.984Z,7.5
2018-05-01T06:56:08.077Z,7.3
2018-05-01T07:01:34.661Z,7.3
2018-05-01T07:07:00.483Z,7.3
2018-05-01T07:12:27.306Z,7.3
2018-05-01T07:17:53.141Z,7.2
2018-05-01T07:23:18.943Z,7.3
2018-05-01T07:28:44.795Z,7.2
2018-05-01T07:34:11.645Z,7.2
2018-05-01T07:39:38.472Z,7.2
2018-05-01T07:45:04.354Z,7.2
2018-05-01T07:50:31.125Z,7.2
2018-05-01T07:55:58.000Z,7.2
2018-05-01T08:01:24.780Z,7.2
2018-05-01T08:06:50.846Z,7.2
2018-05-01T08:12:17.401Z,7.3
2018-05-01T08:17:44.228Z,7.2
2018-05-01T08:23:10.059Z,7.1
2018-05-01T08:28:35.895Z,7.1
2018-05-01T08:34:01.672Z,7.2
2018-05-01T08:39:28.455Z,7.2
2018-05-01T08:44:54.360Z,7.3
2018-05-01T08:50:20.285Z,7.3
2018-05-01T08:55:46.905Z,7.3
2018-05-01T09:01:12.735Z,7.2
2018-05-01T09:06:38.697Z,7.3
2018-05-01T09:12:05.764Z,7.3
2018-05-01T09:17:31.187Z,7.3
2018-05-01T09:22:57.027Z,7.4
2018-05-01T09:28:22.950Z,7.3
2018-05-01T09:33:49.652Z,7.4
2018-05-01T09:39:16.441Z,7.4
2018-05-01T09:44:43.362Z,7.5
2018-05-01T09:50:09.157Z,7.5
2018-05-01T09:55:34.906Z,7.5
2018-05-01T10:01:02.069Z,7.5
2018-05-01T10:06:28.721Z,7.6
2018-05-01T10:11:55.440Z,7.8
2018-05-01T10:17:21.237Z,7.9
2018-05-01T10:22:47.055Z,8
2018-05-01T10:28:12.933Z,8.2
2018-05-01T10:33:38.772Z,8.4
2018-05-01T10:39:05.681Z,8.3
2018-05-01T10:44:31.545Z,8.2
2018-05-01T10:49:58.613Z,8.3
2018-05-01T10:55:25.326Z,8.4
2018-05-01T11:00:52.226Z,8.5
2018-05-01T11:06:19.028Z,8.5
2018-05-01T11:11:46.049Z,8.5
2018-05-01T11:17:11.828Z,8.4
2018-05-01T11:22:38.705Z,8.3
2018-05-01T11:28:04.531Z,8.4
2018-05-01T11:33:30.433Z,8.4
2018-05-01T11:38:57.267Z,8.5
2018-05-01T11:44:23.176Z,8.5
2018-05-01T11:49:49.018Z,8.6
2018-05-01T11:55:14.851Z,8.7
2018-05-01T12:00:40.740Z,8.8
2018-05-01T12:06:07.656Z,8.9
2018-05-01T12:11:34.596Z,9
2018-05-01T12:17:00.466Z,9
2018-05-01T12:22:26.496Z,9.1
2018-05-01T12:27:52.343Z,9.2
2018-05-01T12:33:18.250Z,9.3
2018-05-01T12:38:44.128Z,9.2
2018-05-01T12:44:11.082Z,9.2
2018-05-01T12:49:36.975Z,9.4
2018-05-01T12:55:03.946Z,9.4
2018-05-01T13:00:30.877Z,9.2
2018-05-01T13:05:57.850Z,9.1
2018-05-01T13:11:23.648Z,8.8
2018-05-01T13:16:50.526Z,8.7
2018-05-01T13:22:16.440Z,8.7
2018-05-01T13:27:43.295Z,8.9
2018-05-01T13:33:09.172Z,8.8
2018-05-01T13:38:36.081Z,8.7
2018-05-01T13:44:01.947Z,8.6
2018-05-01T13:49:27.746Z,8.6
2018-05-01T13:54:53.647Z,8.6
2018-05-01T14:00:19.555Z,8.6
2018-05-01T14:05:46.359Z,8.7
2018-05-01T14:11:13.172Z,8.6
2018-05-01T14:16:38.988Z,8.5
2018-05-01T14:22:05.851Z,8.4
2018-05-01T14:27:31.610Z,8.3
2018-05-01T14:32:58.515Z,8.3
2018-05-01T14:38:24.260Z,8.2
2018-05-01T14:43:50.152Z,8.3
2018-05-01T14:49:16.924Z,8.3
2018-05-01T14:54:42.887Z,8.4
2018-05-01T15:00:08.607Z,8.4
2018-05-01T15:05:35.468Z,8.4
2018-05-01T15:11:01.387Z,8.5
2018-05-01T15:16:28.025Z,8.4
2018-05-01T15:21:53.850Z,8.5
2018-05-01T15:27:19.687Z,8.5
2018-05-01T15:32:45.501Z,8.3
2018-05-01T15:38:11.294Z,8.3
2018-05-01T15:43:37.117Z,8.2
2018-05-01T15:49:03.894Z,8.3
2018-05-01T15:54:30.726Z,8.3
2018-05-01T16:10:49.140Z,8.1
2018-05-01T16:16:14.820Z,8
2018-05-01T16:21:41.604Z,7.9
2018-05-01T16:27:07.414Z,7.9
2018-05-01T16:32:33.224Z,7.9
2018-05-01T16:37:59.960Z,7.8
2018-05-01T16:43:26.698Z,7.7
2018-05-01T16:48:53.359Z,7.7
2018-05-01T16:54:19.123Z,7.8
2018-05-01T16:59:45.878Z,7.8
2018-05-01T17:10:39.400Z,7.7
2018-05-01T17:16:06.090Z,7.7
2018-05-01T17:21:32.867Z,7.7
2018-05-01T17:26:59.635Z,7.6
2018-05-01T17:32:26.299Z,7.7
2018-05-01T17:37:52.016Z,7.7
2018-05-01T17:43:18.125Z,7.6
2018-05-01T17:48:43.535Z,7.6
2018-05-01T17:54:09.195Z,7.6
2018-05-01T17:59:34.839Z,7.6
2018-05-01T18:05:01.773Z,7.5
2018-05-01T18:10:26.633Z,7.4
2018-05-01T18:15:51.971Z,7.4
2018-05-01T18:21:18.673Z,7.4
2018-05-01T18:26:45.390Z,7.3
2018-05-01T18:32:11.051Z,7.2
2018-05-01T18:37:38.258Z,7.2
2018-05-01T18:43:04.418Z,7.1
2018-05-01T18:48:31.255Z,7
2018-05-01T18:53:56.734Z,7
2018-05-01T18:59:22.383Z,7
2018-05-01T19:04:48.096Z,6.9
2018-05-01T19:10:14.837Z,6.8
2018-05-01T19:15:40.368Z,6.8
2018-05-01T19:21:05.979Z,6.7
2018-05-01T19:26:32.553Z,6.7
2018-05-01T19:31:59.270Z,6.6
2018-05-01T19:37:24.777Z,6.5
2018-05-01T19:42:50.399Z,6.5
2018-05-01T19:48:16.040Z,6.4
2018-05-01T19:53:42.549Z,6.4
2018-05-01T19:59:08.702Z,6.3
2018-05-01T20:04:33.694Z,6.3
2018-05-01T20:10:00.328Z,6.3
2018-05-01T20:20:52.623Z,6.2
2018-05-01T20:26:18.270Z,6.2
2018-05-01T20:31:44.518Z,6.1
2018-05-01T20:37:10.253Z,6.1
2018-05-01T20:42:36.639Z,6.1
2018-05-01T20:48:03.213Z,6
2018-05-01T20:53:29.729Z,6
2018-05-01T20:58:56.255Z,6
2018-05-01T21:04:21.778Z,6
2018-05-01T21:09:47.315Z,6
2018-05-01T21:15:13.155Z,6
2018-05-01T21:20:38.404Z,6.1
2018-05-01T21:26:04.977Z,6
2018-05-01T21:31:30.603Z,6.1
2018-05-01T21:36:56.031Z,6.1
2018-05-01T21:42:22.550Z,6.1
2018-05-01T21:47:49.181Z,6.1
2018-05-01T21:53:15.709Z,6.1
2018-05-01T21:58:42.172Z,6
2018-05-01T22:04:08.662Z,6
2018-05-01T22:09:34.230Z,6
2018-05-01T22:14:59.731Z,6
2018-05-01T22:20:26.386Z,6
2018-05-01T22:25:51.899Z,5.9
2018-05-01T22:31:17.245Z,5.9
2018-05-01T22:36:43.784Z,5.9
2018-05-01T22:42:09.260Z,5.9
2018-05-01T22:47:35.967Z,5.8
2018-05-01T22:53:01.295Z,5.7
2018-05-01T22:58:26.793Z,5.7
2018-05-01T23:03:52.282Z,5.6
2018-05-01T23:09:17.801Z,5.6
2018-05-01T23:14:44.245Z,5.5
2018-05-01T23:20:10.689Z,5.5
2018-05-01T23:25:37.226Z,5.5
2018-05-01T23:31:03.636Z,5.4
2018-05-01T23:36:29.102Z,5.4
2018-05-01T23:41:55.493Z,5.4
2018-05-01T23:47:21.973Z,5.4
2018-05-01T23:52:47.415Z,5.4
2018-05-01T23:58:12.875Z,5.3
